createdAt,value
2022-08-03T00:00:33.346Z,62.50
2022-08-03T00:03:09.384Z,62.63
2022-08-03T00:05:37.336Z,62.46
2022-08-03T00:08:05.090Z,62.24
2022-08-03T00:10:42.093Z,61.96
2022-08-03T00:13:09.876Z,61.84
2022-08-03T00:15:56.225Z,61.47
2022-08-03T00:18:44.312Z,61.74
2022-08-03T00:25:06.040Z,61.14
2022-08-03T00:32:10.916Z,62.04
2022-08-03T00:34:58.564Z,62.10
2022-08-03T00:37:41.537Z,62.14
2022-08-03T00:40:30.140Z,62.56
2022-08-03T00:46:38.432Z,62.06
2022-08-03T00:49:06.025Z,61.84
2022-08-03T00:51:44.277Z,62.08
2022-08-03T00:54:11.825Z,62.21
2022-08-03T00:56:59.456Z,61.81
2022-08-03T00:59:28.410Z,62.04
2022-08-03T01:02:48.505Z,62.79
2022-08-03T01:05:16.115Z,62.51
2022-08-03T01:07:57.980Z,62.27
2022-08-03T01:10:42.705Z,62.57
2022-08-03T01:14:04.288Z,62.89
2022-08-03T01:16:37.481Z,62.83
2022-08-03T01:19:13.728Z,62.97
2022-08-03T01:21:54.007Z,63.15
2022-08-03T01:24:48.844Z,63.32
2022-08-03T01:27:23.514Z,63.42
2022-08-03T01:33:40.907Z,63.77
2022-08-03T01:36:13.918Z,63.83
2022-08-03T01:39:09.538Z,63.74
2022-08-03T01:41:59.535Z,64.26
2022-08-03T01:44:32.865Z,64.19
2022-08-03T01:47:03.497Z,63.90
2022-08-03T01:49:35.767Z,64.31
2022-08-03T01:52:05.567Z,64.27
2022-08-03T01:54:36.468Z,64.18
2022-08-03T01:57:04.959Z,64.02
2022-08-03T01:59:37.721Z,64.39
2022-08-03T02:02:16.057Z,64.71
2022-08-03T02:04:57.991Z,64.75
2022-08-03T02:10:47.964Z,65.10
2022-08-03T02:13:17.199Z,64.89
2022-08-03T02:15:45.165Z,65.02
2022-08-03T02:18:13.629Z,65.23
2022-08-03T02:20:43.501Z,65.17
2022-08-03T02:23:11.217Z,65.44
2022-08-03T02:25:44.841Z,65.15
2022-08-03T02:28:18.158Z,65.38
2022-08-03T02:42:03.233Z,65.56
2022-08-03T02:48:04.402Z,65.94
2022-08-03T03:04:33.176Z,66.09
2022-08-03T03:07:13.953Z,67.03
2022-08-03T03:09:57.979Z,67.13
2022-08-03T03:12:28.326Z,66.58
2022-08-03T03:14:55.876Z,66.79
2022-08-03T03:24:25.278Z,67.27
2022-08-03T03:27:16.473Z,67.40
2022-08-03T03:29:44.881Z,67.58
2022-08-03T03:32:12.636Z,67.44
2022-08-03T03:35:17.244Z,67.83
2022-08-03T03:37:44.814Z,67.64
2022-08-03T03:44:21.966Z,67.34
2022-08-03T03:47:17.392Z,67.23
2022-08-03T03:50:20.824Z,67.08
2022-08-03T03:52:48.382Z,66.97
2022-08-03T03:56:02.441Z,67.26
2022-08-03T03:58:50.963Z,66.79
2022-08-03T04:01:19.136Z,66.93
2022-08-03T04:03:46.944Z,66.95
2022-08-03T04:06:33.439Z,66.80
2022-08-03T04:12:32.847Z,66.99
2022-08-03T04:15:41.782Z,67.63
2022-08-03T04:18:14.092Z,67.35
2022-08-03T04:24:41.747Z,67.72
2022-08-03T04:28:19.690Z,67.53
2022-08-03T04:34:00.005Z,67.11
2022-08-03T04:36:57.825Z,66.95
2022-08-03T04:43:24.815Z,67.17
2022-08-03T04:45:53.384Z,67.35
2022-08-03T04:48:25.888Z,67.64
2022-08-03T04:50:54.644Z,67.45
2022-08-03T04:53:22.607Z,67.44
2022-08-03T04:55:50.919Z,67.47
2022-08-03T04:58:18.381Z,67.86
2022-08-03T05:01:08.162Z,68.78
2022-08-03T05:03:35.674Z,68.47
2022-08-03T05:06:09.848Z,68.55
2022-08-03T05:08:46.228Z,69.09
2022-08-03T05:11:56.699Z,70.12
2022-08-03T05:14:28.724Z,69.09
2022-08-03T05:21:14.559Z,70.68
2022-08-03T05:24:02.317Z,70.42
2022-08-03T05:33:51.723Z,70.46
2022-08-03T05:36:19.233Z,70.95
2022-08-03T05:42:25.320Z,71.48
2022-08-03T05:48:34.276Z,71.24
2022-08-03T05:54:57.761Z,71.68
2022-08-03T05:57:26.263Z,71.07
2022-08-03T05:59:58.641Z,70.94
2022-08-03T06:06:00.425Z,71.15
2022-08-03T06:08:28.215Z,71.59
2022-08-03T06:10:55.733Z,71.30
2022-08-03T06:14:00.568Z,71.90
2022-08-03T06:16:39.969Z,71.00
2022-08-03T06:23:00.161Z,71.45
2022-08-03T06:25:41.369Z,71.17
2022-08-03T06:28:14.979Z,71.50
2022-08-03T06:31:08.958Z,72.04
2022-08-03T06:34:31.508Z,72.00
2022-08-03T06:36:34.464Z,71.58
2022-08-03T06:39:02.351Z,71.17
2022-08-03T06:42:18.051Z,71.63
2022-08-03T06:44:48.317Z,71.14
2022-08-03T06:47:25.222Z,70.90
2022-08-03T06:50:12.385Z,70.84
2022-08-03T06:52:40.320Z,70.28
2022-08-03T06:55:26.220Z,69.47
2022-08-03T06:58:14.034Z,69.28
2022-08-03T07:00:42.412Z,68.93
2022-08-03T07:03:09.877Z,69.04
2022-08-03T07:05:37.483Z,68.68
2022-08-03T07:08:05.257Z,68.29
2022-08-03T07:10:32.671Z,68.17
2022-08-03T07:13:00.196Z,67.84
2022-08-03T07:15:38.275Z,68.08
2022-08-03T07:18:24.668Z,67.83
2022-08-03T07:21:11.087Z,67.59
2022-08-03T07:23:55.457Z,66.88
2022-08-03T07:26:22.916Z,67.05
2022-08-03T07:28:50.343Z,67.08
2022-08-03T07:31:17.817Z,66.96
2022-08-03T07:33:48.052Z,66.59
2022-08-03T07:36:15.476Z,67.12
2022-08-03T07:38:42.932Z,66.42
2022-08-03T07:41:10.467Z,66.39
2022-08-03T07:43:38.462Z,66.83
2022-08-03T07:46:08.017Z,66.34
2022-08-03T07:48:35.674Z,66.21
2022-08-03T07:51:04.108Z,66.67
2022-08-03T07:53:32.116Z,66.33
2022-08-03T07:56:05.928Z,66.42
2022-08-03T07:58:38.904Z,66.28
2022-08-03T08:01:07.445Z,65.12
2022-08-03T08:03:41.098Z,65.19
2022-08-03T08:06:32.908Z,65.31
2022-08-03T08:09:27.254Z,62.88
2022-08-03T08:11:56.708Z,65.33
2022-08-03T08:14:24.357Z,64.05
2022-08-03T08:16:52.190Z,62.73
2022-08-03T08:19:19.736Z,61.88
2022-08-03T08:22:29.760Z,56.96
2022-08-03T08:26:00.868Z,55.89
2022-08-03T08:28:32.620Z,56.97
2022-08-03T08:31:22.153Z,54.69
2022-08-03T08:34:06.417Z,53.19
2022-08-03T08:36:35.003Z,52.20
2022-08-03T08:39:42.863Z,49.54
2022-08-03T08:42:10.577Z,50.05
2022-08-03T08:44:56.878Z,46.65
2022-08-03T08:47:26.236Z,47.76
2022-08-03T08:50:09.349Z,47.19
2022-08-03T08:52:43.651Z,45.75
2022-08-03T08:55:14.661Z,45.03
2022-08-03T08:57:49.113Z,44.65
2022-08-03T09:00:17.644Z,44.96
2022-08-03T09:02:46.839Z,45.04
2022-08-03T09:05:16.930Z,44.15
2022-08-03T09:07:46.276Z,44.73
2022-08-03T09:10:19.090Z,44.59
2022-08-03T09:12:51.528Z,44.40
2022-08-03T09:15:28.274Z,44.39
2022-08-03T09:18:03.459Z,44.08
2022-08-03T09:20:33.907Z,45.09
2022-08-03T09:23:44.500Z,46.07
2022-08-03T09:25:59.826Z,48.05
2022-08-03T09:29:01.296Z,50.15
2022-08-03T09:31:43.169Z,51.35
2022-08-03T09:34:31.704Z,50.79
2022-08-03T09:36:59.205Z,51.05
2022-08-03T09:39:42.052Z,50.23
2022-08-03T09:42:23.892Z,49.64
2022-08-03T09:45:26.484Z,50.63
2022-08-03T09:47:54.027Z,50.89
2022-08-03T09:50:21.580Z,51.46
2022-08-03T09:52:52.854Z,51.91
2022-08-03T09:55:23.822Z,51.60
2022-08-03T09:58:13.878Z,51.93
2022-08-03T10:01:04.263Z,51.94
2022-08-03T10:04:04.407Z,51.64
2022-08-03T10:06:32.480Z,52.22
2022-08-03T10:09:11.836Z,52.09
2022-08-03T10:11:42.245Z,52.13
2022-08-03T10:14:32.711Z,51.58
2022-08-03T10:17:00.370Z,50.38
2022-08-03T10:19:28.086Z,49.94
2022-08-03T10:21:58.037Z,49.03
2022-08-03T10:24:28.453Z,47.74
2022-08-03T10:27:08.110Z,47.06
2022-08-03T10:29:39.220Z,46.92
2022-08-03T10:32:19.199Z,47.45
2022-08-03T10:34:50.714Z,48.26
2022-08-03T10:37:32.479Z,48.07
2022-08-03T10:40:02.649Z,48.89
2022-08-03T10:42:32.068Z,49.04
2022-08-03T10:45:05.271Z,48.76
2022-08-03T10:47:34.731Z,48.48
2022-08-03T10:50:03.204Z,48.77
2022-08-03T10:52:31.854Z,49.00
2022-08-03T10:55:19.818Z,49.30
2022-08-03T10:57:58.490Z,49.53
2022-08-03T11:00:30.253Z,49.57
2022-08-03T11:03:17.803Z,48.67
2022-08-03T11:05:48.368Z,49.31
2022-08-03T11:08:32.071Z,48.69
2022-08-03T11:11:28.841Z,48.59
2022-08-03T11:14:18.849Z,48.89
2022-08-03T11:17:08.036Z,47.77
2022-08-03T11:19:57.400Z,48.57
2022-08-03T11:22:46.187Z,49.16
2022-08-03T11:25:53.969Z,49.63
2022-08-03T11:28:28.778Z,50.13
2022-08-03T11:30:56.401Z,49.75
2022-08-03T11:33:31.388Z,49.93
2022-08-03T11:36:02.639Z,50.03
2022-08-03T11:38:30.529Z,50.15
2022-08-03T11:41:02.839Z,50.43
2022-08-03T11:43:31.304Z,51.08
2022-08-03T11:46:03.693Z,51.31
2022-08-03T11:48:35.181Z,51.42
2022-08-03T11:51:04.133Z,51.57
2022-08-03T11:53:32.068Z,52.07
2022-08-03T11:56:01.369Z,52.17
2022-08-03T11:59:16.753Z,52.53
2022-08-03T12:02:01.648Z,53.26
2022-08-03T12:04:30.664Z,53.42
2022-08-03T12:06:59.702Z,53.39
2022-08-03T12:09:30.570Z,53.64
2022-08-03T12:12:01.339Z,53.21
2022-08-03T12:14:48.638Z,53.48
2022-08-03T12:17:18.272Z,52.99
2022-08-03T12:19:46.194Z,52.40
2022-08-03T12:22:16.952Z,52.43
2022-08-03T12:24:51.993Z,51.80
2022-08-03T12:27:29.939Z,51.88
2022-08-03T12:29:59.945Z,52.19
2022-08-03T12:32:29.118Z,52.41
2022-08-03T12:35:02.017Z,52.10
2022-08-03T12:37:30.227Z,52.66
2022-08-03T12:40:07.875Z,52.28
2022-08-03T12:42:39.451Z,52.29
2022-08-03T12:45:39.576Z,51.81
2022-08-03T12:48:13.082Z,52.05
2022-08-03T12:50:41.400Z,51.92
2022-08-03T12:53:10.330Z,52.48
2022-08-03T12:55:56.998Z,52.52
2022-08-03T12:58:36.102Z,52.21
2022-08-03T13:01:10.143Z,52.31
2022-08-03T13:03:49.859Z,52.07
2022-08-03T13:06:21.106Z,51.83
2022-08-03T13:08:49.445Z,52.04
2022-08-03T13:11:23.675Z,52.12
2022-08-03T13:14:16.786Z,52.42
2022-08-03T13:16:49.449Z,52.26
2022-08-03T13:19:17.156Z,52.28
2022-08-03T13:22:01.904Z,52.64
2022-08-03T13:24:33.308Z,52.99
2022-08-03T13:28:01.958Z,53.27
2022-08-03T13:29:48.651Z,53.77
2022-08-03T13:32:21.442Z,53.63
2022-08-03T13:34:48.986Z,54.04
2022-08-03T13:37:16.412Z,54.06
2022-08-03T13:39:57.401Z,54.33
2022-08-03T13:42:31.668Z,54.29
2022-08-03T13:44:59.259Z,55.10
2022-08-03T13:48:05.702Z,54.43
2022-08-03T13:50:33.600Z,53.62
2022-08-03T13:53:09.490Z,52.85
2022-08-03T13:59:01.963Z,51.68
2022-08-03T14:01:54.154Z,50.90
2022-08-03T14:04:22.207Z,49.54
2022-08-03T14:06:51.446Z,48.09
2022-08-03T14:09:19.059Z,47.54
2022-08-03T14:12:04.142Z,46.98
2022-08-03T14:14:56.992Z,46.73
2022-08-03T14:17:49.943Z,45.88
2022-08-03T14:20:37.497Z,45.52
2022-08-03T14:23:05.513Z,45.62
2022-08-03T14:25:50.438Z,44.97
2022-08-03T14:28:28.811Z,44.31
2022-08-03T14:30:58.299Z,46.00
2022-08-03T14:33:26.046Z,46.21
2022-08-03T14:35:53.692Z,45.50
2022-08-03T14:38:21.651Z,45.34
2022-08-03T14:40:49.624Z,44.92
2022-08-03T14:44:08.836Z,44.95
2022-08-03T14:46:36.361Z,45.46
2022-08-03T14:50:31.147Z,45.34
2022-08-03T14:51:53.957Z,43.94
2022-08-03T14:54:22.790Z,43.49
2022-08-03T14:56:50.635Z,43.43
2022-08-03T14:59:18.150Z,43.43
2022-08-03T15:02:06.261Z,43.18
2022-08-03T15:04:34.158Z,43.48
2022-08-03T15:07:23.230Z,43.82
2022-08-03T15:10:11.153Z,43.40
2022-08-03T15:12:38.616Z,43.26
2022-08-03T15:15:14.071Z,42.53
2022-08-03T15:17:42.890Z,43.00
2022-08-03T15:20:26.551Z,42.96
2022-08-03T15:22:56.537Z,43.45
2022-08-03T15:26:03.664Z,43.63
2022-08-03T15:28:11.558Z,44.02
2022-08-03T15:30:39.076Z,44.35
2022-08-03T15:33:12.413Z,44.61
2022-08-03T15:35:40.017Z,44.75
2022-08-03T15:38:09.686Z,45.12
2022-08-03T15:40:37.864Z,45.42
2022-08-03T15:43:05.359Z,45.33
2022-08-03T15:45:35.368Z,45.35
2022-08-03T15:48:07.111Z,44.64
2022-08-03T15:50:34.875Z,45.41
2022-08-03T15:53:02.364Z,45.61
2022-08-03T15:55:34.683Z,45.28
2022-08-03T15:59:04.532Z,44.65
2022-08-03T16:00:49.808Z,45.29
2022-08-03T16:03:17.356Z,45.45
2022-08-03T16:05:44.787Z,45.72
2022-08-03T16:08:34.556Z,46.22
2022-08-03T16:11:28.622Z,46.18
2022-08-03T16:14:13.073Z,46.40
2022-08-03T16:16:43.723Z,46.36
2022-08-03T16:19:11.313Z,46.47
2022-08-03T16:21:47.977Z,46.18
2022-08-03T16:24:19.794Z,46.89
2022-08-03T16:26:56.406Z,46.59
2022-08-03T16:29:44.493Z,46.43
2022-08-03T16:35:45.241Z,46.47
2022-08-03T16:38:18.178Z,47.14
2022-08-03T16:40:51.742Z,46.90
2022-08-03T16:43:22.374Z,46.33
2022-08-03T16:45:50.233Z,46.52
2022-08-03T16:48:28.348Z,45.91
2022-08-03T16:50:55.883Z,46.46
2022-08-03T16:53:33.619Z,46.66
2022-08-03T16:56:54.307Z,46.81
2022-08-03T16:59:36.365Z,46.95
2022-08-03T17:02:09.869Z,46.81
2022-08-03T17:05:46.826Z,46.15
2022-08-03T17:08:43.137Z,46.57
2022-08-03T17:11:22.843Z,45.70
2022-08-03T17:13:53.109Z,45.31
2022-08-03T17:16:20.927Z,44.97
2022-08-03T17:19:02.109Z,43.70
2022-08-03T17:21:39.031Z,44.36
2022-08-03T17:24:12.818Z,45.34
2022-08-03T17:26:45.956Z,44.92
2022-08-03T17:29:35.277Z,44.86
2022-08-03T17:32:10.194Z,44.79
2022-08-03T17:34:43.894Z,44.80
2022-08-03T17:37:50.071Z,45.69
2022-08-03T17:40:17.397Z,45.53
2022-08-03T17:42:50.556Z,46.21
2022-08-03T17:45:18.785Z,46.36
2022-08-03T17:47:57.371Z,46.53
2022-08-03T17:50:37.188Z,46.91
2022-08-03T17:53:14.421Z,47.34
2022-08-03T17:55:58.457Z,47.40
2022-08-03T17:58:53.681Z,48.38
2022-08-03T18:01:59.186Z,48.89
2022-08-03T18:05:16.018Z,49.19
2022-08-03T18:08:01.690Z,49.22
2022-08-03T18:10:34.923Z,49.36
2022-08-03T18:13:19.552Z,49.18
2022-08-03T18:15:54.477Z,49.27
2022-08-03T18:18:38.706Z,49.62
2022-08-03T18:21:09.331Z,49.95
2022-08-03T18:23:52.497Z,49.94
2022-08-03T18:26:21.603Z,50.17
2022-08-03T18:28:52.377Z,50.49
2022-08-03T18:31:33.156Z,51.45
2022-08-03T18:34:32.980Z,51.72
2022-08-03T18:37:52.446Z,52.02
2022-08-03T18:40:20.627Z,51.87
2022-08-03T18:42:52.973Z,52.21
2022-08-03T18:45:55.634Z,52.53
2022-08-03T18:48:27.049Z,52.91
2022-08-03T18:51:09.902Z,53.04
2022-08-03T18:54:08.482Z,53.39
2022-08-03T18:56:56.021Z,53.91
2022-08-03T19:00:05.313Z,53.85
2022-08-03T19:02:58.889Z,53.72
2022-08-03T19:06:02.469Z,54.60
2022-08-03T19:08:37.646Z,54.11
2022-08-03T19:11:10.142Z,53.96
2022-08-03T19:13:50.447Z,54.41
2022-08-03T19:16:42.100Z,54.27
2022-08-03T19:19:14.497Z,53.63
2022-08-03T19:21:44.472Z,54.09
2022-08-03T19:24:13.950Z,53.80
2022-08-03T19:26:43.164Z,54.21
2022-08-03T19:29:17.849Z,54.00
2022-08-03T19:31:59.472Z,54.53
2022-08-03T19:34:29.960Z,54.75
2022-08-03T19:36:59.065Z,54.72
2022-08-03T19:39:27.502Z,55.13
2022-08-03T19:41:58.803Z,55.00
2022-08-03T19:44:43.440Z,55.00
2022-08-03T19:47:16.915Z,55.21
2022-08-03T19:50:04.683Z,55.00
2022-08-03T19:52:36.656Z,54.83
2022-08-03T19:55:12.432Z,55.55
2022-08-03T19:57:45.614Z,55.73
2022-08-03T20:00:19.549Z,55.64
2022-08-03T20:03:21.676Z,56.21
2022-08-03T20:05:52.158Z,56.24
2022-08-03T20:08:35.440Z,56.91
2022-08-03T20:11:11.828Z,57.27
2022-08-03T20:13:39.817Z,57.14
2022-08-03T20:16:09.085Z,57.70
2022-08-03T20:18:39.547Z,58.34
2022-08-03T20:21:15.338Z,58.71
2022-08-03T20:24:01.861Z,58.58
2022-08-03T20:26:34.140Z,58.76
2022-08-03T20:29:09.886Z,59.10
2022-08-03T20:31:37.997Z,59.39
2022-08-03T20:34:06.579Z,59.88
2022-08-03T20:36:34.243Z,60.20
2022-08-03T20:39:07.441Z,60.54
2022-08-03T20:41:35.702Z,60.42
2022-08-03T20:44:04.674Z,60.81
2022-08-03T20:46:40.648Z,61.00
2022-08-03T20:49:20.378Z,61.58
2022-08-03T20:51:53.120Z,61.49
2022-08-03T20:54:29.797Z,61.58
2022-08-03T20:57:04.483Z,62.20
2022-08-03T20:59:50.308Z,61.91
2022-08-03T21:02:28.886Z,62.36
2022-08-03T21:05:51.208Z,62.52
2022-08-03T21:08:22.537Z,62.45
2022-08-03T21:10:52.720Z,62.27
2022-08-03T21:13:25.051Z,62.89
2022-08-03T21:16:06.420Z,62.36
2022-08-03T21:18:48.776Z,63.26
2022-08-03T21:21:55.121Z,63.54
2022-08-03T21:24:30.552Z,63.26
2022-08-03T21:26:58.682Z,63.37
2022-08-03T21:29:28.539Z,63.54
2022-08-03T21:31:58.453Z,63.64
2022-08-03T21:34:27.241Z,64.14
2022-08-03T21:36:54.751Z,63.85
2022-08-03T21:39:22.311Z,64.35
2022-08-03T21:41:49.782Z,64.27
2022-08-03T21:44:32.256Z,64.83
2022-08-03T21:47:11.232Z,64.37
2022-08-03T21:50:05.608Z,64.64
2022-08-03T21:52:32.733Z,64.43
2022-08-03T21:55:05.914Z,64.66
2022-08-03T21:57:39.957Z,64.27
2022-08-03T22:00:15.677Z,64.85
2022-08-03T22:02:54.832Z,64.68
2022-08-03T22:05:44.314Z,64.53
2022-08-03T22:08:20.618Z,66.14
2022-08-03T22:10:49.311Z,65.46
2022-08-03T22:13:43.250Z,65.69
2022-08-03T22:16:26.767Z,65.52
2022-08-03T22:18:54.225Z,65.51
2022-08-03T22:21:28.120Z,66.17
2022-08-03T22:24:06.576Z,66.10
2022-08-03T22:26:36.746Z,66.26
2022-08-03T22:29:08.110Z,65.79
2022-08-03T22:31:59.030Z,65.21
2022-08-03T22:34:27.182Z,65.30
2022-08-03T22:37:01.558Z,65.20
2022-08-03T22:39:30.262Z,65.11
2022-08-03T22:42:01.281Z,64.84
2022-08-03T22:44:29.689Z,64.94
2022-08-03T22:46:58.418Z,64.64
2022-08-03T22:49:28.391Z,64.43
2022-08-03T22:51:56.482Z,64.17
2022-08-03T22:54:24.424Z,64.00
2022-08-03T22:56:52.785Z,64.19
2022-08-03T22:59:41.199Z,63.90
2022-08-03T23:02:20.878Z,63.69
2022-08-03T23:04:55.225Z,63.36
2022-08-03T23:07:32.992Z,64.02
2022-08-03T23:10:03.712Z,63.75
2022-08-03T23:12:38.365Z,63.97
2022-08-03T23:15:08.936Z,63.73
2022-08-03T23:17:57.597Z,64.18
2022-08-03T23:20:26.987Z,64.29
2022-08-03T23:22:57.990Z,64.38
2022-08-03T23:25:26.745Z,64.17
2022-08-03T23:28:05.067Z,63.95
2022-08-03T23:30:37.372Z,64.56
2022-08-03T23:33:06.000Z,64.13
2022-08-03T23:36:27.707Z,64.61
2022-08-03T23:38:40.250Z,64.65
2022-08-03T23:41:09.250Z,64.77
2022-08-03T23:43:51.757Z,64.73
2022-08-03T23:46:27.543Z,65.22
2022-08-03T23:48:56.335Z,64.73
